Time;durP1;ratioP1;P1;durP2;ratioP2;P2;SDS_P1;SDS_P2;PMS_P1;PMS_P2;Temp;Humidity;BMP_temperature;BMP_pressure;BME280_temperature;BME280_humidity;BME280_pressure;Samples;Min_cycle;Max_cycle;Signal;HPM_P1;HPM_P2
2023/06/01 00:02:15;;;;;;;77.43;2.70;;;19.40;30.20;;;;;;5055555;28;20672;-77
2023/06/01 00:04:40;;;;;;;77.60;2.47;;;19.30;30.70;;;;;;5055039;28;20667;-77
2023/06/01 00:07:10;;;;;;;77.57;2.47;;;19.30;30.20;;;;;;5055436;28;20451;-77
2023/06/01 00:09:36;;;;;;;77.10;2.23;;;19.30;30.10;;;;;;5055104;28;20243;-77
2023/06/01 00:12:03;;;;;;;77.30;2.23;;;19.30;30.60;;;;;;5055404;28;20772;-77
2023/06/01 00:14:28;;;;;;;77.60;2.80;;;18.80;28.90;;;;;;5054031;28;20421;-76
2023/06/01 00:16:56;;;;;;;77.40;2.60;;;18.70;29.50;;;;;;5054625;28;20502;-77
2023/06/01 00:19:22;;;;;;;77.77;2.73;;;18.50;31.30;;;;;;5054637;28;20172;-77
2023/06/01 00:21:48;;;;;;;77.70;2.60;;;18.80;30.80;;;;;;5054516;28;20911;-77
2023/06/01 00:24:13;;;;;;;77.37;2.27;;;19.00;30.70;;;;;;5054181;28;20411;-77
2023/06/01 00:26:39;;;;;;;78.53;3.07;;;19.00;31.00;;;;;;5054710;28;20714;-77
2023/06/01 00:29:04;;;;;;;78.40;2.80;;;19.00;30.50;;;;;;5054860;28;20194;-77
2023/06/01 00:31:30;;;;;;;78.20;2.97;;;19.00;31.00;;;;;;5054095;28;20177;-77
2023/06/01 00:33:56;;;;;;;77.60;2.37;;;18.90;32.10;;;;;;5053661;28;20176;-77
2023/06/01 00:36:21;;;;;;;78.17;2.40;;;18.80;31.70;;;;;;5053030;28;20221;-77
2023/06/01 00:38:47;;;;;;;78.27;2.50;;;18.90;31.70;;;;;;5054584;28;20207;-77
2023/06/01 00:41:13;;;;;;;78.87;2.40;;;18.90;31.90;;;;;;5054654;28;20710;-77
2023/06/01 00:43:38;;;;;;;78.27;2.67;;;19.00;31.70;;;;;;5053842;28;20180;-77
2023/06/01 00:46:05;;;;;;;79.00;2.87;;;19.00;31.90;;;;;;5054534;28;20212;-76
2023/06/01 00:48:30;;;;;;;78.10;2.50;;;18.90;32.20;;;;;;5055119;28;20562;-77
2023/06/01 00:50:58;;;;;;;78.17;2.30;;;18.80;32.10;;;;;;5055219;28;20407;-77
2023/06/01 00:53:24;;;;;;;80.00;3.00;;;18.80;32.30;;;;;;5054147;28;20175;-77
2023/06/01 00:55:50;;;;;;;78.60;2.53;;;18.80;31.40;;;;;;5054273;28;20422;-77
2023/06/01 00:58:16;;;;;;;78.43;2.53;;;18.70;32.00;;;;;;5054756;28;20441;-77
2023/06/01 01:00:42;;;;;;;78.30;2.33;;;18.80;31.80;;;;;;5054017;28;20476;-77
2023/06/01 01:03:08;;;;;;;78.17;2.40;;;18.60;31.50;;;;;;5053889;28;20174;-77
2023/06/01 01:05:36;;;;;;;80.57;2.63;;;18.60;32.40;;;;;;5052411;28;20211;-77
2023/06/01 01:08:31;;;;;;;78.57;2.60;;;18.50;32.00;;;;;;5053956;28;20429;-77
2023/06/01 01:11:03;;;;;;;78.40;2.30;;;18.50;33.00;;;;;;5053973;28;20406;-76
2023/06/01 01:13:49;;;;;;;79.70;2.70;;;18.50;32.40;;;;;;5053250;28;20765;-77
2023/06/01 01:16:29;;;;;;;78.80;2.40;;;18.40;32.50;;;;;;5053901;28;20983;-77
2023/06/01 01:19:08;;;;;;;78.80;2.60;;;18.50;32.40;;;;;;5053984;28;20386;-78
2023/06/01 01:21:38;;;;;;;79.67;2.57;;;18.30;33.30;;;;;;5053898;28;20443;-76
2023/06/01 01:24:45;;;;;;;78.70;2.50;;;18.40;32.70;;;;;;5052984;28;20406;-77
2023/06/01 01:27:37;;;;;;;78.47;2.30;;;18.20;33.80;;;;;;5054075;28;20846;-77
2023/06/01 01:30:07;;;;;;;79.13;2.63;;;18.30;33.10;;;;;;5053391;28;20546;-76
2023/06/01 01:32:35;;;;;;;79.57;3.03;;;18.50;33.20;;;;;;5053143;28;20936;-76
2023/06/01 01:35:02;;;;;;;79.17;2.40;;;18.30;33.20;;;;;;5053335;28;20462;-76
2023/06/01 01:37:28;;;;;;;78.90;2.37;;;18.40;32.70;;;;;;5053891;28;20927;-77
2023/06/01 01:39:53;;;;;;;98.57;2.67;;;18.30;33.20;;;;;;5053075;28;20439;-77
2023/06/01 01:42:19;;;;;;;79.60;3.07;;;18.20;33.00;;;;;;5053096;28;20602;-77
2023/06/01 01:44:45;;;;;;;79.30;2.70;;;18.10;33.90;;;;;;5051973;28;20235;-77
2023/06/01 01:47:18;;;;;;;79.07;2.30;;;18.10;33.90;;;;;;5060348;28;20215;-77
2023/06/01 01:49:48;;;;;;;80.27;2.83;;;18.10;33.20;;;;;;5072606;28;20459;-77
2023/06/01 01:52:30;;;;;;;79.67;2.77;;;18.00;33.70;;;;;;5072537;28;20437;-77
2023/06/01 01:54:56;;;;;;;79.60;2.40;;;18.10;32.90;;;;;;5072132;28;20446;-77
2023/06/01 01:57:23;;;;;;;79.80;2.47;;;18.00;33.70;;;;;;5071385;28;20425;-77
2023/06/01 01:59:50;;;;;;;79.93;2.33;;;17.90;33.60;;;;;;5072292;28;20466;-77
2023/06/01 02:02:15;;;;;;;79.53;2.30;;;17.80;35.10;;;;;;5072571;28;20909;-77
2023/06/01 02:04:43;;;;;;;79.50;2.23;;;17.70;34.50;;;;;;5071469;28;20458;-76
2023/06/01 02:07:09;;;;;;;81.63;2.80;;;17.70;33.80;;;;;;5072298;28;20195;-76
2023/06/01 02:09:36;;;;;;;80.70;2.67;;;17.70;34.80;;;;;;5072192;28;20472;-77
2023/06/01 02:12:01;;;;;;;79.87;2.23;;;17.60;34.00;;;;;;5072176;28;20471;-77
2023/06/01 02:14:28;;;;;;;80.67;2.53;;;17.50;33.20;;;;;;5071113;28;20840;-76
2023/06/01 02:16:54;;;;;;;80.17;2.30;;;17.60;34.10;;;;;;5072058;28;20415;-77
2023/06/01 02:19:20;;;;;;;80.67;2.67;;;17.60;34.70;;;;;;5070844;28;20418;-76
2023/06/01 02:21:46;;;;;;;80.27;2.33;;;17.50;34.60;;;;;;5072020;28;20900;-76
2023/06/01 02:24:12;;;;;;;80.67;2.33;;;17.40;36.50;;;;;;5071430;28;20417;-76
2023/06/01 02:26:38;;;;;;;80.00;2.40;;;17.40;35.00;;;;;;5071900;28;20195;-76
2023/06/01 02:29:05;;;;;;;80.20;2.30;;;17.50;35.00;;;;;;5071711;28;20463;-76
2023/06/01 02:31:39;;;;;;;80.47;2.53;;;17.50;34.80;;;;;;5072975;28;20413;-76
2023/06/01 02:34:05;;;;;;;80.37;2.63;;;17.50;36.30;;;;;;5071381;28;20411;-76
2023/06/01 02:36:31;;;;;;;80.33;2.27;;;17.50;34.50;;;;;;5071729;28;20940;-76
2023/06/01 02:38:57;;;;;;;80.90;2.47;;;17.50;34.50;;;;;;5071719;28;20199;-76
2023/06/01 02:41:23;;;;;;;86.73;2.30;;;17.50;34.80;;;;;;5071631;28;20417;-76
2023/06/01 02:43:52;;;;;;;81.10;2.87;;;17.30;35.40;;;;;;5070903;28;20508;-76
2023/06/01 02:46:19;;;;;;;80.63;2.50;;;17.30;35.90;;;;;;5071421;28;20986;-76
2023/06/01 02:48:45;;;;;;;80.30;2.40;;;17.30;35.50;;;;;;5071361;28;20470;-76
2023/06/01 02:51:11;;;;;;;80.07;2.23;;;17.40;36.10;;;;;;5071580;28;20409;-76
2023/06/01 02:53:42;;;;;;;81.07;3.00;;;17.20;36.50;;;;;;5070958;28;20470;-76
2023/06/01 02:56:08;;;;;;;83.80;3.30;;;17.20;35.70;;;;;;5071274;28;20826;-76
2023/06/01 02:58:34;;;;;;;81.23;2.40;;;17.40;35.70;;;;;;5071259;28;20413;-76
2023/06/01 03:00:59;;;;;;;80.20;2.30;;;17.40;35.60;;;;;;5070707;28;20441;-76
2023/06/01 03:03:28;;;;;;;80.60;2.30;;;17.50;35.60;;;;;;5069927;28;20184;-76
2023/06/01 03:05:55;;;;;;;80.47;2.20;;;17.60;35.20;;;;;;5071326;28;20202;-76
2023/06/01 03:08:21;;;;;;;80.53;2.40;;;17.40;34.60;;;;;;5070012;28;20468;-76
2023/06/01 03:10:46;;;;;;;80.50;2.20;;;17.40;35.60;;;;;;5071199;28;20409;-76
2023/06/01 03:13:12;;;;;;;80.57;2.50;;;17.20;35.30;;;;;;5070827;28;20416;-76
2023/06/01 03:15:38;;;;;;;83.43;3.47;;;17.30;35.90;;;;;;5071330;28;20191;-76
2023/06/01 03:18:05;;;;;;;81.10;2.57;;;17.30;36.10;;;;;;5071304;28;20175;-76
2023/06/01 03:20:31;;;;;;;81.40;2.70;;;17.10;37.40;;;;;;5072464;28;20171;-77
2023/06/01 03:22:57;;;;;;;81.27;2.50;;;17.10;35.70;;;;;;5070738;28;20759;-76
2023/06/01 03:25:24;;;;;;;80.67;2.03;;;17.10;36.60;;;;;;5070075;28;20557;-77
2023/06/01 03:27:50;;;;;;;81.07;2.40;;;17.10;36.30;;;;;;5071019;28;20251;-78
2023/06/01 03:30:17;;;;;;;81.20;2.40;;;17.00;35.90;;;;;;5071059;28;20409;-77
2023/06/01 03:32:43;;;;;;;81.27;2.50;;;17.00;37.10;;;;;;5070646;28;20413;-77
2023/06/01 03:35:13;;;;;;;81.27;2.40;;;16.90;37.30;;;;;;5071270;28;20433;-77
2023/06/01 03:37:41;;;;;;;82.50;2.97;;;17.00;37.10;;;;;;5070968;28;20428;-77
2023/06/01 03:40:10;;;;;;;81.33;2.20;;;17.10;36.40;;;;;;5071087;28;20419;-78
2023/06/01 03:42:44;;;;;;;82.07;2.90;;;17.00;35.70;;;;;;5070381;28;20410;-77
2023/06/01 03:45:11;;;;;;;81.90;2.70;;;17.00;36.00;;;;;;5071072;28;20454;-77
2023/06/01 03:47:37;;;;;;;82.37;2.67;;;16.60;36.40;;;;;;5071087;28;20413;-78
2023/06/01 03:50:06;;;;;;;81.60;2.27;;;16.80;36.70;;;;;;5070947;28;20466;-77
2023/06/01 03:52:32;;;;;;;84.83;3.33;;;16.80;35.60;;;;;;5070287;28;20426;-77
2023/06/01 03:54:59;;;;;;;82.33;3.20;;;16.40;35.00;;;;;;5070746;28;20891;-77
2023/06/01 03:57:24;;;;;;;81.97;2.60;;;16.40;36.40;;;;;;5070969;28;20485;-77
2023/06/01 03:59:51;;;;;;;81.67;2.30;;;16.50;35.80;;;;;;5069721;28;20417;-77
2023/06/01 04:02:18;;;;;;;81.87;2.43;;;16.50;36.90;;;;;;5069429;28;20227;-76
2023/06/01 04:04:47;;;;;;;82.10;2.43;;;16.70;36.80;;;;;;5070187;28;20986;-77
2023/06/01 04:07:18;;;;;;;88.10;2.43;;;16.60;35.90;;;;;;5069450;28;20425;-77
2023/06/01 04:09:48;;;;;;;83.57;2.77;;;16.30;36.60;;;;;;5070892;28;20454;-77
2023/06/01 04:12:14;;;;;;;82.60;2.67;;;16.00;37.90;;;;;;5073720;28;20423;-77
2023/06/01 04:14:40;;;;;;;83.80;2.60;;;16.40;37.80;;;;;;5073519;28;20435;-76
2023/06/01 04:17:06;;;;;;;84.80;3.07;;;16.30;37.20;;;;;;5074442;28;20442;-77
2023/06/01 04:19:33;;;;;;;83.00;3.10;;;16.50;37.10;;;;;;5072984;28;20479;-77
2023/06/01 04:21:59;;;;;;;82.17;2.40;;;16.70;36.30;;;;;;5074497;28;20172;-77
2023/06/01 04:24:25;;;;;;;82.10;2.33;;;16.90;35.80;;;;;;5073637;28;20416;-77
2023/06/01 04:26:51;;;;;;;82.20;2.67;;;17.00;35.60;;;;;;5074170;28;20410;-77
2023/06/01 04:29:19;;;;;;;83.67;3.53;;;17.00;35.20;;;;;;5074308;28;20200;-77
2023/06/01 04:31:45;;;;;;;82.53;2.57;;;17.10;35.10;;;;;;5074196;28;20173;-77
2023/06/01 04:34:12;;;;;;;83.17;2.90;;;17.30;35.20;;;;;;5073543;28;20830;-77
2023/06/01 04:36:38;;;;;;;82.27;2.87;;;17.60;32.80;;;;;;5074505;28;20429;-77
2023/06/01 04:39:06;;;;;;;83.80;2.70;;;17.60;34.30;;;;;;5075140;28;20421;-77
2023/06/01 04:41:32;;;;;;;82.73;2.77;;;17.40;32.40;;;;;;5074443;28;20420;-77
2023/06/01 04:43:58;;;;;;;82.07;2.23;;;17.00;33.80;;;;;;5073775;28;20560;-77
2023/06/01 04:46:26;;;;;;;82.70;2.87;;;17.20;34.40;;;;;;5074214;28;20529;-77
2023/06/01 04:48:58;;;;;;;82.77;2.60;;;17.40;34.10;;;;;;5074344;28;20286;-77
2023/06/01 04:51:24;;;;;;;84.77;3.07;;;17.50;35.10;;;;;;5074712;28;20461;-77
2023/06/01 04:53:53;;;;;;;82.67;2.60;;;17.60;36.00;;;;;;5073819;28;20418;-77
2023/06/01 04:56:26;;;;;;;82.57;2.40;;;17.60;35.10;;;;;;5074155;28;20267;-77
2023/06/01 04:58:53;;;;;;;83.90;3.40;;;17.70;35.60;;;;;;5073799;28;20413;-76
2023/06/01 05:01:20;;;;;;;82.90;2.50;;;17.70;35.10;;;;;;5073795;28;20413;-77
2023/06/01 05:03:46;;;;;;;83.37;3.10;;;17.70;35.70;;;;;;5073220;28;20405;-77
2023/06/01 05:06:13;;;;;;;82.50;2.30;;;17.80;34.20;;;;;;5073943;28;20456;-77
2023/06/01 05:08:39;;;;;;;82.97;2.67;;;17.90;34.90;;;;;;5073812;28;20225;-77
2023/06/01 05:11:06;;;;;;;82.70;2.60;;;18.30;32.60;;;;;;5073920;28;20429;-77
2023/06/01 05:13:34;;;;;;;85.17;3.00;;;18.30;34.50;;;;;;5072804;28;20406;-77
2023/06/01 05:15:59;;;;;;;83.47;2.83;;;18.40;33.30;;;;;;5073744;28;20450;-77
2023/06/01 05:18:25;;;;;;;82.30;2.23;;;18.40;35.00;;;;;;5073829;28;20424;-78
2023/06/01 05:20:51;;;;;;;84.20;2.67;;;18.40;34.40;;;;;;5073182;28;20240;-77
2023/06/01 05:23:17;;;;;;;82.83;2.60;;;18.60;31.90;;;;;;5072156;28;20170;-77
2023/06/01 05:25:42;;;;;;;82.37;2.37;;;18.90;31.30;;;;;;5073436;28;20492;-77
2023/06/01 05:28:08;;;;;;;82.63;2.73;;;18.90;33.00;;;;;;5072042;28;20570;-77
2023/06/01 05:30:33;;;;;;;82.60;2.60;;;18.90;33.20;;;;;;5073501;28;20217;-77
2023/06/01 05:32:59;;;;;;;82.90;2.70;;;19.10;32.90;;;;;;5073095;28;20173;-77
2023/06/01 05:35:25;;;;;;;82.70;2.53;;;19.00;30.60;;;;;;5073088;28;20617;-77
2023/06/01 05:37:50;;;;;;;83.20;2.67;;;18.50;31.30;;;;;;5073018;28;20188;-77
2023/06/01 05:40:16;;;;;;;83.10;3.07;;;18.70;32.30;;;;;;5073197;28;20171;-77
2023/06/01 05:42:42;;;;;;;83.40;3.03;;;18.40;31.60;;;;;;5072365;28;20172;-77
2023/06/01 05:45:09;;;;;;;82.40;2.30;;;18.70;32.30;;;;;;5071441;28;20474;-77
2023/06/01 05:47:34;;;;;;;82.70;2.70;;;19.00;30.80;;;;;;5073032;28;20181;-77
2023/06/01 05:50:00;;;;;;;82.07;2.30;;;18.90;31.30;;;;;;5073006;28;20452;-77
2023/06/01 05:52:26;;;;;;;82.60;2.77;;;18.90;29.80;;;;;;5072894;28;20168;-77
2023/06/01 05:54:53;;;;;;;83.10;2.40;;;18.70;31.10;;;;;;5071945;28;20179;-77
2023/06/01 05:57:22;;;;;;;83.50;2.50;;;19.00;31.10;;;;;;5073312;28;20168;-77
2023/06/01 05:59:47;;;;;;;83.90;2.63;;;18.90;31.20;;;;;;5072827;28;20435;-77
2023/06/01 06:02:14;;;;;;;82.07;2.40;;;18.70;31.30;;;;;;5075984;28;21055;-78
2023/06/01 06:04:40;;;;;;;81.90;2.30;;;18.90;32.30;;;;;;5070823;28;20196;-77
2023/06/01 06:07:06;;;;;;;82.30;2.57;;;19.40;31.50;;;;;;5072750;28;20431;-77
2023/06/01 06:09:31;;;;;;;82.07;2.63;;;19.00;29.90;;;;;;5072439;28;20452;-77
2023/06/01 06:11:57;;;;;;;86.80;2.93;;;18.20;29.80;;;;;;5072291;28;20223;-77
2023/06/01 06:14:23;;;;;;;82.13;2.57;;;18.50;30.40;;;;;;5074061;28;20634;-77
2023/06/01 06:16:49;;;;;;;83.03;3.10;;;19.20;31.10;;;;;;5072191;28;20409;-78
2023/06/01 06:19:17;;;;;;;81.63;2.20;;;19.30;29.80;;;;;;5072506;28;20176;-78
2023/06/01 06:21:43;;;;;;;83.47;3.33;;;19.60;28.80;;;;;;5070871;28;20508;-77
2023/06/01 06:24:09;;;;;;;82.50;3.17;;;19.20;28.60;;;;;;5071504;28;20504;-77
2023/06/01 06:26:35;;;;;;;84.03;3.20;;;18.70;29.40;;;;;;5072370;28;20207;-76
2023/06/01 06:29:00;;;;;;;81.90;2.43;;;19.10;29.40;;;;;;5072267;28;20635;-77
2023/06/01 06:31:26;;;;;;;81.97;2.50;;;18.80;29.70;;;;;;5072490;28;20408;-77
2023/06/01 06:33:52;;;;;;;82.17;2.90;;;18.80;29.80;;;;;;5071642;28;20205;-77
2023/06/01 06:36:18;;;;;;;83.97;2.80;;;19.60;31.40;;;;;;5073061;28;20549;-77
2023/06/01 06:38:44;;;;;;;82.10;2.53;;;20.10;29.20;;;;;;5072792;28;20181;-77
2023/06/01 06:41:10;;;;;;;81.70;2.60;;;20.20;28.10;;;;;;5071615;28;20405;-77
2023/06/01 06:43:35;;;;;;;81.57;2.50;;;20.00;28.20;;;;;;5072294;28;20419;-77
2023/06/01 06:46:02;;;;;;;82.20;3.03;;;20.00;27.60;;;;;;5072645;28;20254;-77
2023/06/01 06:48:27;;;;;;;81.27;2.37;;;19.80;27.80;;;;;;5071990;28;20765;-78
2023/06/01 06:50:53;;;;;;;81.77;2.63;;;19.90;27.60;;;;;;5071827;28;20508;-77
2023/06/01 06:53:18;;;;;;;82.17;2.20;;;19.80;27.50;;;;;;5071158;28;20631;-77
2023/06/01 06:55:44;;;;;;;81.30;2.50;;;19.70;28.00;;;;;;5071757;28;20203;-77
2023/06/01 06:58:10;;;;;;;81.07;2.47;;;19.50;28.20;;;;;;5072200;28;20163;-77
2023/06/01 07:00:36;;;;;;;81.37;2.73;;;19.90;27.80;;;;;;5072463;28;20214;-77
2023/06/01 07:03:03;;;;;;;80.80;2.30;;;19.90;27.60;;;;;;5071484;28;20413;-77
2023/06/01 07:05:28;;;;;;;80.77;2.27;;;19.70;27.80;;;;;;5072228;28;20832;-77
2023/06/01 07:07:54;;;;;;;83.50;2.83;;;19.90;28.20;;;;;;5072665;28;20408;-77
2023/06/01 07:10:20;;;;;;;81.07;2.53;;;20.60;27.60;;;;;;5073185;28;20450;-77
2023/06/01 07:12:46;;;;;;;81.20;2.80;;;21.20;26.90;;;;;;5072931;28;20256;-77
2023/06/01 07:15:11;;;;;;;81.03;2.60;;;21.40;27.00;;;;;;5073191;28;20190;-77
2023/06/01 07:17:37;;;;;;;80.50;2.30;;;20.80;25.30;;;;;;5072417;28;20218;-77
2023/06/01 07:20:06;;;;;;;80.30;2.20;;;20.70;26.50;;;;;;5071771;28;20175;-77
2023/06/01 07:22:33;;;;;;;80.80;2.73;;;20.40;27.60;;;;;;5070998;28;20171;-77
2023/06/01 07:24:58;;;;;;;80.77;2.83;;;20.00;27.90;;;;;;5071264;28;20434;-77
2023/06/01 07:27:24;;;;;;;86.43;3.73;;;20.70;28.20;;;;;;5073205;28;20527;-77
2023/06/01 07:29:55;;;;;;;82.80;3.30;;;21.20;26.80;;;;;;5073064;28;20662;-77
2023/06/01 07:32:24;;;;;;;80.20;2.43;;;21.60;26.20;;;;;;5073721;28;20160;-77
2023/06/01 07:34:50;;;;;;;80.37;2.77;;;21.50;26.50;;;;;;5072350;28;20435;-77
2023/06/01 07:37:16;;;;;;;81.50;3.10;;;21.50;25.10;;;;;;5072571;28;20501;-77
2023/06/01 07:39:41;;;;;;;80.50;2.50;;;21.10;26.20;;;;;;5072822;28;20227;-77
2023/06/01 07:42:07;;;;;;;80.97;3.23;;;21.40;25.50;;;;;;5072417;28;20180;-77
2023/06/01 07:44:33;;;;;;;80.13;2.70;;;21.30;26.00;;;;;;5071711;28;20185;-77
2023/06/01 07:46:58;;;;;;;80.07;2.60;;;21.70;26.30;;;;;;5076158;28;20167;-77
2023/06/01 07:49:24;;;;;;;80.20;2.93;;;22.10;25.40;;;;;;5078028;28;20223;-77
2023/06/01 07:51:51;;;;;;;80.10;2.87;;;22.50;23.90;;;;;;5077563;28;20177;-77
2023/06/01 07:54:17;;;;;;;79.47;2.50;;;22.80;24.40;;;;;;5077602;28;20163;-77
2023/06/01 07:56:43;;;;;;;79.97;2.63;;;22.90;24.40;;;;;;5077991;28;20427;-77
2023/06/01 07:59:09;;;;;;;79.67;2.40;;;23.00;22.30;;;;;;5076475;28;20416;-78
2023/06/01 08:01:34;;;;;;;79.20;2.40;;;22.80;23.90;;;;;;5076660;28;20587;-77
2023/06/01 08:04:01;;;;;;;79.97;2.80;;;22.80;24.10;;;;;;5075170;28;20221;-78
2023/06/01 08:06:27;;;;;;;79.00;2.33;;;22.60;23.00;;;;;;5075243;28;20187;-77
2023/06/01 08:08:53;;;;;;;79.03;2.40;;;22.50;24.50;;;;;;5075709;28;20471;-78
2023/06/01 08:11:18;;;;;;;79.47;2.33;;;22.60;23.60;;;;;;5075571;28;20165;-77
2023/06/01 08:13:47;;;;;;;79.37;2.70;;;22.60;24.10;;;;;;5074806;28;20480;-77
2023/06/01 08:16:13;;;;;;;79.20;2.70;;;23.00;24.50;;;;;;5074984;28;20192;-78
2023/06/01 08:18:39;;;;;;;78.87;2.80;;;23.20;23.80;;;;;;5075076;28;20405;-77
2023/06/01 08:21:05;;;;;;;78.77;2.50;;;23.40;24.10;;;;;;5075067;28;20217;-77
2023/06/01 08:23:30;;;;;;;78.77;2.43;;;23.40;23.10;;;;;;5076567;28;20178;-77
2023/06/01 08:25:56;;;;;;;80.17;2.87;;;23.90;25.00;;;;;;5076950;28;20312;-77
2023/06/01 08:28:22;;;;;;;78.97;2.60;;;23.30;22.90;;;;;;5077942;28;20219;-77
2023/06/01 08:30:48;;;;;;;78.40;2.53;;;23.60;22.60;;;;;;5077838;28;20241;-77
2023/06/01 08:33:15;;;;;;;79.90;2.80;;;23.70;23.80;;;;;;5077260;28;20398;-77
2023/06/01 08:35:40;;;;;;;80.17;3.20;;;23.70;23.50;;;;;;5078663;28;20194;-77
2023/06/01 08:38:06;;;;;;;78.27;2.50;;;23.80;23.70;;;;;;5077902;28;20408;-77
2023/06/01 08:40:32;;;;;;;79.10;2.57;;;23.90;23.70;;;;;;5077963;28;20180;-77
2023/06/01 08:43:02;;;;;;;78.37;2.80;;;24.20;22.70;;;;;;5076965;28;20164;-77
2023/06/01 08:45:29;;;;;;;78.10;2.50;;;24.30;23.90;;;;;;5077884;28;20675;-77
2023/06/01 08:47:55;;;;;;;85.63;2.80;;;24.30;23.80;;;;;;5076765;28;20409;-77
2023/06/01 08:50:21;;;;;;;78.30;2.80;;;23.70;23.60;;;;;;5076136;28;20965;-77
2023/06/01 08:52:48;;;;;;;78.80;2.93;;;23.60;23.80;;;;;;5076302;28;20397;-77
2023/06/01 08:55:15;;;;;;;78.77;3.07;;;23.70;23.50;;;;;;5077504;28;20433;-77
2023/06/01 08:57:41;;;;;;;78.00;2.53;;;24.30;23.80;;;;;;5075726;28;20406;-77
2023/06/01 09:00:08;;;;;;;78.27;2.70;;;24.50;24.00;;;;;;5078473;28;20782;-77
2023/06/01 09:02:34;;;;;;;78.70;3.00;;;24.90;22.70;;;;;;5077515;28;20416;-77
2023/06/01 09:05:00;;;;;;;78.30;2.47;;;24.40;22.00;;;;;;5075548;28;20439;-77
2023/06/01 09:07:26;;;;;;;77.80;2.50;;;23.80;24.20;;;;;;5077006;28;20178;-77
2023/06/01 09:09:51;;;;;;;78.20;2.57;;;24.00;22.90;;;;;;5077094;28;20296;-77
2023/06/01 09:12:25;;;;;;;78.03;2.87;;;23.90;22.80;;;;;;5075127;28;20406;-77
2023/06/01 09:15:12;;;;;;;77.47;2.30;;;23.70;22.80;;;;;;5075481;28;20191;-77
2023/06/01 09:17:41;;;;;;;85.90;3.63;;;23.50;24.40;;;;;;5074891;28;20480;-77
2023/06/01 09:20:31;;;;;;;77.90;2.43;;;23.50;24.00;;;;;;5075705;28;20420;-77
2023/06/01 09:22:57;;;;;;;77.67;2.40;;;23.70;23.80;;;;;;5075539;28;20406;-77
2023/06/01 09:25:28;;;;;;;77.20;2.50;;;24.30;24.00;;;;;;5077860;28;20436;-78
2023/06/01 09:27:55;;;;;;;77.13;2.60;;;25.10;23.00;;;;;;5076583;28;20439;-77
2023/06/01 09:30:23;;;;;;;77.73;2.70;;;25.60;22.00;;;;;;5080122;28;20520;-77
2023/06/01 09:32:53;;;;;;;77.73;2.97;;;25.50;21.10;;;;;;5075903;28;20980;-77
2023/06/01 09:35:45;;;;;;;77.47;2.70;;;24.70;23.00;;;;;;5076089;28;20421;-77
2023/06/01 09:38:19;;;;;;;77.17;2.60;;;24.40;24.20;;;;;;5077838;28;20401;-77
2023/06/01 09:40:59;;;;;;;76.57;2.30;;;25.40;23.50;;;;;;5078483;28;20441;-77
2023/06/01 09:43:26;;;;;;;77.10;2.60;;;25.50;22.10;;;;;;5076193;28;20397;-78
2023/06/01 09:46:06;;;;;;;76.57;2.40;;;24.80;22.30;;;;;;5077172;28;20471;-77
2023/06/01 09:48:32;;;;;;;78.00;2.87;;;24.80;22.60;;;;;;5078166;28;20997;-77
2023/06/01 09:50:57;;;;;;;76.37;2.40;;;25.40;23.30;;;;;;5078635;28;20410;-77
2023/06/01 09:53:24;;;;;;;76.47;2.60;;;25.70;22.10;;;;;;5078401;28;20195;-77
2023/06/01 09:56:00;;;;;;;76.50;2.43;;;25.90;22.20;;;;;;5079281;28;20601;-77
2023/06/01 09:58:26;;;;;;;76.10;2.40;;;26.10;20.60;;;;;;5079305;28;20733;-77
2023/06/01 10:00:52;;;;;;;76.00;2.47;;;25.80;21.60;;;;;;5076669;28;20946;-77
2023/06/01 10:03:20;;;;;;;75.70;2.40;;;26.40;20.90;;;;;;5075383;28;20409;-77
2023/06/01 10:05:47;;;;;;;78.37;2.70;;;26.20;21.10;;;;;;5076935;28;20232;-77
2023/06/01 10:08:16;;;;;;;80.90;2.60;;;26.40;20.80;;;;;;5077361;28;20480;-77
2023/06/01 10:10:43;;;;;;;76.40;2.63;;;26.90;20.40;;;;;;5076334;28;20835;-78
2023/06/01 10:13:10;;;;;;;75.80;2.43;;;27.20;19.80;;;;;;5074650;28;20409;-78
2023/06/01 10:15:36;;;;;;;76.10;2.57;;;26.30;20.50;;;;;;5076948;28;20479;-78
2023/06/01 10:18:04;;;;;;;75.57;2.40;;;26.30;20.90;;;;;;5077241;28;20412;-78
2023/06/01 10:20:33;;;;;;;76.07;2.60;;;27.10;20.20;;;;;;5079722;28;20488;-78
2023/06/01 10:23:00;;;;;;;76.37;2.67;;;27.60;18.70;;;;;;5079119;28;20507;-78
2023/06/01 10:25:35;;;;;;;75.77;2.70;;;27.80;18.60;;;;;;5080895;28;20516;-78
2023/06/01 10:28:09;;;;;;;75.53;2.60;;;28.20;18.10;;;;;;5078992;28;20409;-78
2023/06/01 10:30:35;;;;;;;80.83;2.90;;;27.50;17.20;;;;;;5079567;28;20482;-78
2023/06/01 10:33:00;;;;;;;75.27;2.70;;;28.00;17.10;;;;;;5078855;28;20868;-78
2023/06/01 10:35:26;;;;;;;81.30;3.20;;;28.30;15.90;;;;;;5080795;28;20246;-78
2023/06/01 10:38:07;;;;;;;75.60;2.73;;;28.60;17.80;;;;;;5081544;28;20198;-78
2023/06/01 10:40:37;;;;;;;74.90;2.47;;;28.90;17.40;;;;;;5088775;28;20178;-77
2023/06/01 10:43:03;;;;;;;75.00;2.60;;;29.10;16.60;;;;;;5094442;28;20397;-77
2023/06/01 10:45:35;;;;;;;74.77;2.40;;;29.00;15.80;;;;;;5093247;28;20448;-77
2023/06/01 10:48:02;;;;;;;74.80;2.83;;;28.60;15.20;;;;;;5094053;28;20469;-77
2023/06/01 10:50:27;;;;;;;74.27;2.10;;;28.40;16.90;;;;;;5094982;28;20464;-78
2023/06/01 10:52:54;;;;;;;75.27;2.70;;;28.90;16.30;;;;;;5094144;28;20421;-78
2023/06/01 10:55:25;;;;;;;74.37;2.47;;;29.40;15.20;;;;;;5092019;28;20191;-78
2023/06/01 10:57:51;;;;;;;74.67;2.63;;;29.40;15.60;;;;;;5094327;28;20632;-78
2023/06/01 11:00:27;;;;;;;74.17;2.57;;;29.50;14.40;;;;;;5093902;28;20443;-78
2023/06/01 11:02:56;;;;;;;73.77;2.43;;;29.30;15.60;;;;;;5082950;28;20424;-77
2023/06/01 11:05:38;;;;;;;73.90;2.40;;;29.50;14.80;;;;;;5084003;28;20436;-77
2023/06/01 11:08:09;;;;;;;74.03;2.40;;;28.00;15.60;;;;;;5079851;28;20933;-77
2023/06/01 11:10:50;;;;;;;73.20;2.20;;;27.10;17.60;;;;;;5077402;28;20481;-77
2023/06/01 11:13:18;;;;;;;73.70;2.30;;;26.90;16.90;;;;;;5074209;28;20401;-78
2023/06/01 11:16:25;;;;;;;75.90;2.40;;;27.00;17.00;;;;;;5073969;28;20455;-77
2023/06/01 11:18:58;;;;;;;72.70;2.30;;;28.10;17.20;;;;;;4998230;28;20507;-78
2023/06/01 11:21:35;;;;;;;72.30;2.20;;;28.40;17.60;;;;;;4999939;28;20841;-78
2023/06/01 11:24:04;;;;;;;72.20;2.20;;;28.50;16.80;;;;;;5002121;28;20956;-78
2023/06/01 11:26:50;;;;;;;71.97;2.20;;;29.40;16.80;;;;;;5002618;28;20429;-78
2023/06/01 11:29:21;;;;;;;73.33;2.90;;;30.10;15.60;;;;;;5003652;28;20475;-78
2023/06/01 11:31:47;;;;;;;73.20;2.33;;;31.00;12.70;;;;;;5004569;28;20798;-78
2023/06/01 11:34:15;;;;;;;72.67;2.50;;;31.30;12.20;;;;;;4984965;28;20428;-78
2023/06/01 11:36:48;;;;;;;72.27;2.33;;;30.10;13.60;;;;;;5004001;28;20439;-78
2023/06/01 11:39:25;;;;;;;72.33;2.30;;;31.30;14.30;;;;;;5005585;28;21005;-78
2023/06/01 11:42:05;;;;;;;72.53;2.47;;;32.90;10.90;;;;;;5006451;28;20417;-78
2023/06/01 11:44:32;;;;;;;72.87;2.40;;;33.70;10.20;;;;;;5005370;28;20488;-78
2023/06/01 11:46:59;;;;;;;72.47;2.03;;;34.30;9.50;;;;;;5006334;28;20425;-78
2023/06/01 11:49:25;;;;;;;70.70;2.00;;;34.80;9.10;;;;;;5006983;28;20511;-79
2023/06/01 11:51:51;;;;;;;70.27;2.10;;;35.50;8.40;;;;;;5005778;28;20412;-79
2023/06/01 11:54:26;;;;;;;70.10;2.33;;;35.10;8.50;;;;;;5047291;28;20885;-79
2023/06/01 11:56:52;;;;;;;68.77;2.10;;;34.60;10.20;;;;;;5087689;28;20542;-78
2023/06/01 11:59:18;;;;;;;69.07;2.17;;;34.20;9.70;;;;;;5087188;28;20610;-79
2023/06/01 12:01:46;;;;;;;68.77;2.23;;;34.60;10.20;;;;;;5086744;28;20417;-79
2023/06/01 12:04:23;;;;;;;68.77;1.97;;;33.40;8.90;;;;;;5083582;28;20174;-78
2023/06/01 12:06:51;;;;;;;68.47;2.30;;;32.10;10.70;;;;;;5084849;28;20413;-78
2023/06/01 12:09:17;;;;;;;67.73;2.20;;;32.00;10.10;;;;;;5083429;28;20448;-78
2023/06/01 12:11:44;;;;;;;67.90;2.30;;;31.40;12.90;;;;;;5086287;28;20425;-79
2023/06/01 12:14:14;;;;;;;67.03;2.03;;;33.50;11.10;;;;;;5087713;28;20178;-78
2023/06/01 12:16:54;;;;;;;67.10;2.30;;;35.60;8.40;;;;;;5089225;28;20433;-79
2023/06/01 12:19:21;;;;;;;67.17;2.30;;;37.50;8.20;;;;;;5089792;28;20421;-79
2023/06/01 12:21:51;;;;;;;65.90;2.13;;;37.80;7.00;;;;;;5089588;28;20711;-79
2023/06/01 12:24:30;;;;;;;65.80;2.20;;;35.70;6.10;;;;;;5088363;28;20392;-79
2023/06/01 12:26:58;;;;;;;64.17;2.23;;;37.30;5.50;;;;;;5088235;28;20407;-79
2023/06/01 12:29:47;;;;;;;64.00;2.00;;;36.90;6.60;;;;;;5087972;28;20465;-79
2023/06/01 12:32:16;;;;;;;62.77;1.90;;;37.70;6.30;;;;;;5080377;28;20397;-79
2023/06/01 12:34:47;;;;;;;62.77;2.03;;;38.10;5.60;;;;;;5080696;28;20803;-79
2023/06/01 12:37:17;;;;;;;62.10;2.07;;;37.60;4.60;;;;;;5080879;28;20420;-79
2023/06/01 12:39:43;;;;;;;61.77;2.17;;;37.20;6.50;;;;;;5078961;28;20466;-79
2023/06/01 12:42:11;;;;;;;61.73;1.80;;;37.80;6.00;;;;;;5078129;28;20487;-79
2023/06/01 12:44:37;;;;;;;63.00;2.10;;;36.70;4.90;;;;;;5083082;28;20836;-78